sensor_id;sensor_type;location;lat;lon;timestamp;pressure;altitude;pressure_sealevel;temperature
54746;BMP180;40640;48.130;11.356;2023-09-18T00:02:20;95335.00;;;20.10
54746;BMP180;40640;48.130;11.356;2023-09-18T00:06:23;95333.00;;;20.10
54746;BMP180;40640;48.130;11.356;2023-09-18T00:10:26;95332.00;;;20.10
54746;BMP180;40640;48.130;11.356;2023-09-18T00:14:30;95328.00;;;20.10
54746;BMP180;40640;48.130;11.356;2023-09-18T00:18:34;95312.00;;;20.10
54746;BMP180;40640;48.130;11.356;2023-09-18T00:22:39;95306.00;;;19.80
54746;BMP180;40640;48.130;11.356;2023-09-18T00:26:42;95293.00;;;19.60
54746;BMP180;40640;48.130;11.356;2023-09-18T00:30:48;95280.00;;;19.40
54746;BMP180;40640;48.130;11.356;2023-09-18T00:34:53;95283.00;;;19.40
54746;BMP180;40640;48.130;11.356;2023-09-18T00:38:56;95274.00;;;19.40
54746;BMP180;40640;48.130;11.356;2023-09-18T00:42:59;95261.00;;;19.40
54746;BMP180;40640;48.130;11.356;2023-09-18T00:47:02;95266.00;;;19.00
54746;BMP180;40640;48.130;11.356;2023-09-18T00:51:08;95267.00;;;19.00
54746;BMP180;40640;48.130;11.356;2023-09-18T00:55:11;95256.00;;;19.00
54746;BMP180;40640;48.130;11.356;2023-09-18T00:59:15;95254.00;;;19.10
54746;BMP180;40640;48.130;11.356;2023-09-18T01:03:18;95258.00;;;19.20
54746;BMP180;40640;48.130;11.356;2023-09-18T01:07:23;95254.00;;;19.10
54746;BMP180;40640;48.130;11.356;2023-09-18T01:11:36;95254.00;;;19.00
54746;BMP180;40640;48.130;11.356;2023-09-18T01:15:44;95257.00;;;18.90
54746;BMP180;40640;48.130;11.356;2023-09-18T01:19:50;95242.00;;;18.80
54746;BMP180;40640;48.130;11.356;2023-09-18T01:23:54;95249.00;;;18.90
54746;BMP180;40640;48.130;11.356;2023-09-18T01:27:57;95246.00;;;18.90
54746;BMP180;40640;48.130;11.356;2023-09-18T01:32:00;95256.00;;;18.90
54746;BMP180;40640;48.130;11.356;2023-09-18T01:36:03;95237.00;;;18.90
54746;BMP180;40640;48.130;11.356;2023-09-18T01:40:10;95231.00;;;19.00
54746;BMP180;40640;48.130;11.356;2023-09-18T01:44:13;95220.00;;;18.90
54746;BMP180;40640;48.130;11.356;2023-09-18T01:48:16;95208.00;;;18.80
54746;BMP180;40640;48.130;11.356;2023-09-18T01:52:20;95216.00;;;18.80
54746;BMP180;40640;48.130;11.356;2023-09-18T01:56:24;95207.00;;;18.80
54746;BMP180;40640;48.130;11.356;2023-09-18T02:00:27;95210.00;;;18.80
54746;BMP180;40640;48.130;11.356;2023-09-18T02:04:31;95198.00;;;18.80
54746;BMP180;40640;48.130;11.356;2023-09-18T02:08:54;95195.00;;;18.80
54746;BMP180;40640;48.130;11.356;2023-09-18T02:12:59;95193.00;;;18.80
54746;BMP180;40640;48.130;11.356;2023-09-18T02:17:02;95188.00;;;18.80
54746;BMP180;40640;48.130;11.356;2023-09-18T02:21:07;95191.00;;;18.80
54746;BMP180;40640;48.130;11.356;2023-09-18T02:25:09;95180.00;;;18.80
54746;BMP180;40640;48.130;11.356;2023-09-18T02:29:14;95179.00;;;18.80
54746;BMP180;40640;48.130;11.356;2023-09-18T02:33:17;95178.00;;;18.80
54746;BMP180;40640;48.130;11.356;2023-09-18T02:37:20;95173.00;;;18.70
54746;BMP180;40640;48.130;11.356;2023-09-18T02:41:23;95167.00;;;18.70
54746;BMP180;40640;48.130;11.356;2023-09-18T02:45:27;95161.00;;;18.60
54746;BMP180;40640;48.130;11.356;2023-09-18T02:49:30;95156.00;;;18.60
54746;BMP180;40640;48.130;11.356;2023-09-18T02:53:34;95154.00;;;18.60
54746;BMP180;40640;48.130;11.356;2023-09-18T02:57:37;95152.00;;;18.60
54746;BMP180;40640;48.130;11.356;2023-09-18T03:01:42;95148.00;;;18.50
54746;BMP180;40640;48.130;11.356;2023-09-18T03:05:45;95154.00;;;18.50
54746;BMP180;40640;48.130;11.356;2023-09-18T03:09:48;95146.00;;;18.50
54746;BMP180;40640;48.130;11.356;2023-09-18T03:13:51;95132.00;;;18.40
54746;BMP180;40640;48.130;11.356;2023-09-18T03:17:55;95131.00;;;18.40
54746;BMP180;40640;48.130;11.356;2023-09-18T03:21:58;95138.00;;;18.40
54746;BMP180;40640;48.130;11.356;2023-09-18T03:26:02;95138.00;;;18.40
54746;BMP180;40640;48.130;11.356;2023-09-18T03:30:06;95131.00;;;18.40
54746;BMP180;40640;48.130;11.356;2023-09-18T03:34:11;95123.00;;;18.40
54746;BMP180;40640;48.130;11.356;2023-09-18T03:38:14;95121.00;;;18.30
54746;BMP180;40640;48.130;11.356;2023-09-18T03:42:17;95116.00;;;18.30
54746;BMP180;40640;48.130;11.356;2023-09-18T03:46:20;95104.00;;;18.30
54746;BMP180;40640;48.130;11.356;2023-09-18T03:50:25;95099.00;;;18.30
54746;BMP180;40640;48.130;11.356;2023-09-18T03:54:29;95097.00;;;18.30
54746;BMP180;40640;48.130;11.356;2023-09-18T03:58:32;95084.00;;;18.20
54746;BMP180;40640;48.130;11.356;2023-09-18T04:02:37;95081.00;;;18.30
54746;BMP180;40640;48.130;11.356;2023-09-18T04:06:42;95070.00;;;18.20
54746;BMP180;40640;48.130;11.356;2023-09-18T04:10:46;95071.00;;;18.10
54746;BMP180;40640;48.130;11.356;2023-09-18T04:14:49;95074.00;;;18.10
54746;BMP180;40640;48.130;11.356;2023-09-18T04:18:52;95064.00;;;18.00
54746;BMP180;40640;48.130;11.356;2023-09-18T04:23:20;95067.00;;;17.90
54746;BMP180;40640;48.130;11.356;2023-09-18T04:27:25;95062.00;;;17.90
54746;BMP180;40640;48.130;11.356;2023-09-18T04:31:28;95063.00;;;17.90
54746;BMP180;40640;48.130;11.356;2023-09-18T04:35:31;95065.00;;;17.80
54746;BMP180;40640;48.130;11.356;2023-09-18T04:39:36;95076.00;;;17.80
54746;BMP180;40640;48.130;11.356;2023-09-18T04:43:39;95082.00;;;17.70
54746;BMP180;40640;48.130;11.356;2023-09-18T04:47:42;95073.00;;;17.70
54746;BMP180;40640;48.130;11.356;2023-09-18T04:51:47;95080.00;;;17.70
54746;BMP180;40640;48.130;11.356;2023-09-18T04:55:51;95073.00;;;17.60
54746;BMP180;40640;48.130;11.356;2023-09-18T04:59:54;95075.00;;;17.60
54746;BMP180;40640;48.130;11.356;2023-09-18T05:04:16;95075.00;;;17.60
54746;BMP180;40640;48.130;11.356;2023-09-18T05:08:20;95083.00;;;17.60
54746;BMP180;40640;48.130;11.356;2023-09-18T05:12:25;95090.00;;;17.70
54746;BMP180;40640;48.130;11.356;2023-09-18T05:16:28;95095.00;;;17.70
54746;BMP180;40640;48.130;11.356;2023-09-18T05:20:32;95086.00;;;17.80
54746;BMP180;40640;48.130;11.356;2023-09-18T05:24:36;95080.00;;;17.90
54746;BMP180;40640;48.130;11.356;2023-09-18T05:28:40;95090.00;;;17.90
54746;BMP180;40640;48.130;11.356;2023-09-18T05:32:43;95087.00;;;17.90
54746;BMP180;40640;48.130;11.356;2023-09-18T05:36:47;95098.00;;;18.00
54746;BMP180;40640;48.130;11.356;2023-09-18T05:40:50;95089.00;;;18.10
54746;BMP180;40640;48.130;11.356;2023-09-18T05:44:54;95075.00;;;18.20
54746;BMP180;40640;48.130;11.356;2023-09-18T05:48:57;95073.00;;;18.40
54746;BMP180;40640;48.130;11.356;2023-09-18T05:53:02;95072.00;;;18.70
54746;BMP180;40640;48.130;11.356;2023-09-18T05:57:06;95080.00;;;18.70
54746;BMP180;40640;48.130;11.356;2023-09-18T06:01:11;95077.00;;;18.70
54746;BMP180;40640;48.130;11.356;2023-09-18T06:05:14;95093.00;;;18.90
54746;BMP180;40640;48.130;11.356;2023-09-18T06:09:18;95095.00;;;19.20
54746;BMP180;40640;48.130;11.356;2023-09-18T06:13:21;95097.00;;;19.50
54746;BMP180;40640;48.130;11.356;2023-09-18T06:17:25;95102.00;;;19.50
54746;BMP180;40640;48.130;11.356;2023-09-18T06:21:29;95092.00;;;19.70
54746;BMP180;40640;48.130;11.356;2023-09-18T06:25:31;95091.00;;;20.00
54746;BMP180;40640;48.130;11.356;2023-09-18T06:29:35;95104.00;;;20.20
54746;BMP180;40640;48.130;11.356;2023-09-18T06:33:40;95105.00;;;20.60
54746;BMP180;40640;48.130;11.356;2023-09-18T06:37:43;95104.00;;;21.10
54746;BMP180;40640;48.130;11.356;2023-09-18T06:41:46;95114.00;;;22.60
54746;BMP180;40640;48.130;11.356;2023-09-18T06:45:49;95110.00;;;24.30
54746;BMP180;40640;48.130;11.356;2023-09-18T06:49:53;95130.00;;;23.80
54746;BMP180;40640;48.130;11.356;2023-09-18T06:53:56;95117.00;;;22.70
54746;BMP180;40640;48.130;11.356;2023-09-18T06:57:59;95140.00;;;22.60
54746;BMP180;40640;48.130;11.356;2023-09-18T07:02:03;95173.00;;;22.80
54746;BMP180;40640;48.130;11.356;2023-09-18T07:06:07;95187.00;;;23.70
54746;BMP180;40640;48.130;11.356;2023-09-18T07:10:10;95181.00;;;24.70
54746;BMP180;40640;48.130;11.356;2023-09-18T07:14:13;95176.00;;;25.90
54746;BMP180;40640;48.130;11.356;2023-09-18T07:18:16;95176.00;;;26.10
54746;BMP180;40640;48.130;11.356;2023-09-18T07:22:21;95183.00;;;27.10
54746;BMP180;40640;48.130;11.356;2023-09-18T07:26:23;95186.00;;;27.90
54746;BMP180;40640;48.130;11.356;2023-09-18T07:30:26;95187.00;;;29.30
54746;BMP180;40640;48.130;11.356;2023-09-18T07:34:30;95189.00;;;29.30
54746;BMP180;40640;48.130;11.356;2023-09-18T07:38:35;95190.00;;;30.40
54746;BMP180;40640;48.130;11.356;2023-09-18T07:42:38;95187.00;;;32.10
54746;BMP180;40640;48.130;11.356;2023-09-18T07:46:40;95176.00;;;33.60
54746;BMP180;40640;48.130;11.356;2023-09-18T07:50:43;95193.00;;;34.90
54746;BMP180;40640;48.130;11.356;2023-09-18T07:54:48;95215.00;;;35.70
54746;BMP180;40640;48.130;11.356;2023-09-18T07:58:51;95230.00;;;34.50
54746;BMP180;40640;48.130;11.356;2023-09-18T08:02:55;95241.00;;;32.70
54746;BMP180;40640;48.130;11.356;2023-09-18T08:07:00;95251.00;;;30.20
54746;BMP180;40640;48.130;11.356;2023-09-18T08:11:08;95256.00;;;28.20
54746;BMP180;40640;48.130;11.356;2023-09-18T08:15:11;95247.00;;;27.40
54746;BMP180;40640;48.130;11.356;2023-09-18T08:19:15;95263.00;;;27.10
54746;BMP180;40640;48.130;11.356;2023-09-18T08:23:18;95268.00;;;26.80
54746;BMP180;40640;48.130;11.356;2023-09-18T08:27:24;95277.00;;;27.10
54746;BMP180;40640;48.130;11.356;2023-09-18T08:31:27;95289.00;;;26.90
54746;BMP180;40640;48.130;11.356;2023-09-18T08:35:31;95296.00;;;26.40
54746;BMP180;40640;48.130;11.356;2023-09-18T08:39:34;95293.00;;;26.00
54746;BMP180;40640;48.130;11.356;2023-09-18T08:43:43;95301.00;;;25.70
54746;BMP180;40640;48.130;11.356;2023-09-18T08:47:46;95298.00;;;25.40
54746;BMP180;40640;48.130;11.356;2023-09-18T08:51:51;95296.00;;;25.20
54746;BMP180;40640;48.130;11.356;2023-09-18T08:55:57;95310.00;;;25.10
54746;BMP180;40640;48.130;11.356;2023-09-18T09:00:06;95301.00;;;24.80
54746;BMP180;40640;48.130;11.356;2023-09-18T09:04:13;95303.00;;;24.60
54746;BMP180;40640;48.130;11.356;2023-09-18T09:08:17;95315.00;;;24.40
54746;BMP180;40640;48.130;11.356;2023-09-18T09:12:47;95320.00;;;24.20
54746;BMP180;40640;48.130;11.356;2023-09-18T09:16:51;95315.00;;;24.20
54746;BMP180;40640;48.130;11.356;2023-09-18T09:20:56;95294.00;;;24.30
54746;BMP180;40640;48.130;11.356;2023-09-18T09:25:01;95313.00;;;24.50
54746;BMP180;40640;48.130;11.356;2023-09-18T09:29:14;95319.00;;;24.60
54746;BMP180;40640;48.130;11.356;2023-09-18T09:33:24;95319.00;;;24.50
54746;BMP180;40640;48.130;11.356;2023-09-18T09:37:29;95311.00;;;24.50
54746;BMP180;40640;48.130;11.356;2023-09-18T09:41:33;95322.00;;;24.60
54746;BMP180;40640;48.130;11.356;2023-09-18T09:45:37;95326.00;;;24.70
54746;BMP180;40640;48.130;11.356;2023-09-18T09:49:47;95327.00;;;24.70
54746;BMP180;40640;48.130;11.356;2023-09-18T09:53:50;95325.00;;;24.50
54746;BMP180;40640;48.130;11.356;2023-09-18T09:57:54;95322.00;;;24.50
54746;BMP180;40640;48.130;11.356;2023-09-18T10:02:01;95323.00;;;24.80
54746;BMP180;40640;48.130;11.356;2023-09-18T10:06:08;95327.00;;;24.80
54746;BMP180;40640;48.130;11.356;2023-09-18T10:10:12;95326.00;;;24.90
54746;BMP180;40640;48.130;11.356;2023-09-18T10:14:18;95326.00;;;24.90
54746;BMP180;40640;48.130;11.356;2023-09-18T10:18:27;95324.00;;;24.80
54746;BMP180;40640;48.130;11.356;2023-09-18T10:22:37;95329.00;;;24.60
54746;BMP180;40640;48.130;11.356;2023-09-18T10:26:50;95338.00;;;24.60
54746;BMP180;40640;48.130;11.356;2023-09-18T10:30:56;95344.00;;;24.80
54746;BMP180;40640;48.130;11.356;2023-09-18T10:35:01;95348.00;;;24.70
54746;BMP180;40640;48.130;11.356;2023-09-18T10:39:06;95351.00;;;24.70
54746;BMP180;40640;48.130;11.356;2023-09-18T10:43:16;95350.00;;;24.60
54746;BMP180;40640;48.130;11.356;2023-09-18T10:47:19;95349.00;;;24.50
54746;BMP180;40640;48.130;11.356;2023-09-18T10:51:23;95350.00;;;24.50
54746;BMP180;40640;48.130;11.356;2023-09-18T10:55:28;95355.00;;;24.60
54746;BMP180;40640;48.130;11.356;2023-09-18T10:59:31;95351.00;;;24.60
54746;BMP180;40640;48.130;11.356;2023-09-18T11:03:38;95363.00;;;24.50
54746;BMP180;40640;48.130;11.356;2023-09-18T11:07:43;95366.00;;;24.40
54746;BMP180;40640;48.130;11.356;2023-09-18T11:11:51;95367.00;;;24.30
54746;BMP180;40640;48.130;11.356;2023-09-18T11:16:02;95373.00;;;24.20
54746;BMP180;40640;48.130;11.356;2023-09-18T11:20:09;95373.00;;;24.00
54746;BMP180;40640;48.130;11.356;2023-09-18T11:24:18;95394.00;;;23.90
54746;BMP180;40640;48.130;11.356;2023-09-18T11:28:25;95400.00;;;23.70
54746;BMP180;40640;48.130;11.356;2023-09-18T11:32:37;95419.00;;;23.50
54746;BMP180;40640;48.130;11.356;2023-09-18T11:36:41;95431.00;;;23.40
54746;BMP180;40640;48.130;11.356;2023-09-18T11:40:45;95448.00;;;23.30
54746;BMP180;40640;48.130;11.356;2023-09-18T11:44:49;95471.00;;;22.90
54746;BMP180;40640;48.130;11.356;2023-09-18T11:48:53;95463.00;;;22.80
54746;BMP180;40640;48.130;11.356;2023-09-18T11:52:57;95462.00;;;22.70
54746;BMP180;40640;48.130;11.356;2023-09-18T11:57:03;95472.00;;;22.70
54746;BMP180;40640;48.130;11.356;2023-09-18T12:01:11;95467.00;;;22.40
54746;BMP180;40640;48.130;11.356;2023-09-18T12:05:20;95472.00;;;22.10
54746;BMP180;40640;48.130;11.356;2023-09-18T12:09:27;95480.00;;;22.00
54746;BMP180;40640;48.130;11.356;2023-09-18T12:13:31;95485.00;;;21.80
54746;BMP180;40640;48.130;11.356;2023-09-18T12:17:35;95498.00;;;21.60
54746;BMP180;40640;48.130;11.356;2023-09-18T12:21:40;95513.00;;;21.60
54746;BMP180;40640;48.130;11.356;2023-09-18T12:25:45;95515.00;;;21.30
54746;BMP180;40640;48.130;11.356;2023-09-18T12:29:49;95522.00;;;21.30
54746;BMP180;40640;48.130;11.356;2023-09-18T12:33:53;95522.00;;;21.10
54746;BMP180;40640;48.130;11.356;2023-09-18T12:37:57;95515.00;;;21.00
54746;BMP180;40640;48.130;11.356;2023-09-18T12:42:00;95524.00;;;20.70
54746;BMP180;40640;48.130;11.356;2023-09-18T12:46:05;95537.00;;;20.70
54746;BMP180;40640;48.130;11.356;2023-09-18T12:50:12;95538.00;;;20.60
54746;BMP180;40640;48.130;11.356;2023-09-18T12:54:15;95541.00;;;20.50
54746;BMP180;40640;48.130;11.356;2023-09-18T12:58:19;95523.00;;;20.40
54746;BMP180;40640;48.130;11.356;2023-09-18T13:02:23;95521.00;;;20.40
54746;BMP180;40640;48.130;11.356;2023-09-18T13:06:32;95526.00;;;20.60
54746;BMP180;40640;48.130;11.356;2023-09-18T13:10:43;95525.00;;;20.60
54746;BMP180;40640;48.130;11.356;2023-09-18T13:14:59;95516.00;;;20.30
54746;BMP180;40640;48.130;11.356;2023-09-18T13:19:05;95529.00;;;20.30
54746;BMP180;40640;48.130;11.356;2023-09-18T13:23:10;95531.00;;;20.40
54746;BMP180;40640;48.130;11.356;2023-09-18T13:27:13;95522.00;;;20.40
54746;BMP180;40640;48.130;11.356;2023-09-18T13:31:16;95528.00;;;20.40
54746;BMP180;40640;48.130;11.356;2023-09-18T13:35:20;95520.00;;;20.40
54746;BMP180;40640;48.130;11.356;2023-09-18T13:39:25;95512.00;;;20.40
54746;BMP180;40640;48.130;11.356;2023-09-18T13:43:28;95512.00;;;20.40
54746;BMP180;40640;48.130;11.356;2023-09-18T13:47:35;95501.00;;;20.50
54746;BMP180;40640;48.130;11.356;2023-09-18T13:51:39;95492.00;;;20.90
54746;BMP180;40640;48.130;11.356;2023-09-18T13:55:43;95482.00;;;21.00
54746;BMP180;40640;48.130;11.356;2023-09-18T13:59:47;95464.00;;;21.10
54746;BMP180;40640;48.130;11.356;2023-09-18T14:03:50;95458.00;;;21.30
54746;BMP180;40640;48.130;11.356;2023-09-18T14:07:53;95440.00;;;21.40
54746;BMP180;40640;48.130;11.356;2023-09-18T14:12:03;95435.00;;;21.40
54746;BMP180;40640;48.130;11.356;2023-09-18T14:16:06;95427.00;;;21.60
54746;BMP180;40640;48.130;11.356;2023-09-18T14:20:11;95402.00;;;21.60
54746;BMP180;40640;48.130;11.356;2023-09-18T14:24:14;95377.00;;;21.60
54746;BMP180;40640;48.130;11.356;2023-09-18T14:28:21;95380.00;;;21.50
54746;BMP180;40640;48.130;11.356;2023-09-18T14:32:23;95393.00;;;21.30
54746;BMP180;40640;48.130;11.356;2023-09-18T14:36:28;95377.00;;;21.20
54746;BMP180;40640;48.130;11.356;2023-09-18T14:40:32;95382.00;;;21.10
54746;BMP180;40640;48.130;11.356;2023-09-18T14:44:36;95397.00;;;21.00
54746;BMP180;40640;48.130;11.356;2023-09-18T14:48:41;95385.00;;;21.10
54746;BMP180;40640;48.130;11.356;2023-09-18T14:52:44;95367.00;;;21.10
54746;BMP180;40640;48.130;11.356;2023-09-18T14:56:47;95367.00;;;21.10
54746;BMP180;40640;48.130;11.356;2023-09-18T15:00:52;95366.00;;;21.00
54746;BMP180;40640;48.130;11.356;2023-09-18T15:04:56;95350.00;;;20.90
54746;BMP180;40640;48.130;11.356;2023-09-18T15:09:00;95341.00;;;20.80
54746;BMP180;40640;48.130;11.356;2023-09-18T15:13:04;95334.00;;;20.70
54746;BMP180;40640;48.130;11.356;2023-09-18T15:17:09;95337.00;;;20.70
54746;BMP180;40640;48.130;11.356;2023-09-18T15:21:11;95347.00;;;20.70
54746;BMP180;40640;48.130;11.356;2023-09-18T15:25:14;95361.00;;;20.50
54746;BMP180;40640;48.130;11.356;2023-09-18T15:29:17;95371.00;;;20.40
54746;BMP180;40640;48.130;11.356;2023-09-18T15:33:22;95366.00;;;20.30
54746;BMP180;40640;48.130;11.356;2023-09-18T15:37:27;95372.00;;;20.20
54746;BMP180;40640;48.130;11.356;2023-09-18T15:41:30;95366.00;;;20.20
54746;BMP180;40640;48.130;11.356;2023-09-18T15:45:33;95368.00;;;20.20
54746;BMP180;40640;48.130;11.356;2023-09-18T15:49:38;95363.00;;;20.10
54746;BMP180;40640;48.130;11.356;2023-09-18T15:53:40;95354.00;;;20.10
54746;BMP180;40640;48.130;11.356;2023-09-18T15:57:43;95357.00;;;20.30
54746;BMP180;40640;48.130;11.356;2023-09-18T16:01:46;95367.00;;;20.50
54746;BMP180;40640;48.130;11.356;2023-09-18T16:05:51;95358.00;;;20.50
54746;BMP180;40640;48.130;11.356;2023-09-18T16:09:55;95340.00;;;20.40
54746;BMP180;40640;48.130;11.356;2023-09-18T16:13:59;95332.00;;;20.30
54746;BMP180;40640;48.130;11.356;2023-09-18T16:18:02;95327.00;;;20.30
54746;BMP180;40640;48.130;11.356;2023-09-18T16:22:07;95318.00;;;20.40
54746;BMP180;40640;48.130;11.356;2023-09-18T16:26:12;95320.00;;;20.40
54746;BMP180;40640;48.130;11.356;2023-09-18T16:30:15;95316.00;;;20.30
54746;BMP180;40640;48.130;11.356;2023-09-18T16:34:18;95297.00;;;20.10
54746;BMP180;40640;48.130;11.356;2023-09-18T16:38:22;95307.00;;;20.10
54746;BMP180;40640;48.130;11.356;2023-09-18T16:42:25;95289.00;;;20.00
54746;BMP180;40640;48.130;11.356;2023-09-18T16:46:28;95293.00;;;19.90
54746;BMP180;40640;48.130;11.356;2023-09-18T16:50:31;95290.00;;;19.80
54746;BMP180;40640;48.130;11.356;2023-09-18T16:54:36;95288.00;;;19.80
54746;BMP180;40640;48.130;11.356;2023-09-18T16:58:38;95288.00;;;19.70
54746;BMP180;40640;48.130;11.356;2023-09-18T17:02:41;95287.00;;;19.60
54746;BMP180;40640;48.130;11.356;2023-09-18T17:06:44;95289.00;;;19.60
54746;BMP180;40640;48.130;11.356;2023-09-18T17:10:50;95283.00;;;19.50
54746;BMP180;40640;48.130;11.356;2023-09-18T17:15:09;95270.00;;;19.40
54746;BMP180;40640;48.130;11.356;2023-09-18T17:19:12;95276.00;;;19.40
54746;BMP180;40640;48.130;11.356;2023-09-18T17:23:15;95272.00;;;19.20
54746;BMP180;40640;48.130;11.356;2023-09-18T17:27:20;95263.00;;;19.30
54746;BMP180;40640;48.130;11.356;2023-09-18T17:31:23;95253.00;;;19.20
54746;BMP180;40640;48.130;11.356;2023-09-18T17:35:26;95264.00;;;19.00
54746;BMP180;40640;48.130;11.356;2023-09-18T17:39:29;95259.00;;;19.00
54746;BMP180;40640;48.130;11.356;2023-09-18T17:43:33;95264.00;;;19.00
54746;BMP180;40640;48.130;11.356;2023-09-18T17:47:36;95259.00;;;18.80
54746;BMP180;40640;48.130;11.356;2023-09-18T17:51:40;95243.00;;;18.80
54746;BMP180;40640;48.130;11.356;2023-09-18T17:55:45;95248.00;;;18.70
54746;BMP180;40640;48.130;11.356;2023-09-18T17:59:51;95254.00;;;18.80
54746;BMP180;40640;48.130;11.356;2023-09-18T18:03:54;95255.00;;;18.70
54746;BMP180;40640;48.130;11.356;2023-09-18T18:08:00;95265.00;;;18.70
54746;BMP180;40640;48.130;11.356;2023-09-18T18:12:03;95274.00;;;18.60
54746;BMP180;40640;48.130;11.356;2023-09-18T18:16:08;95278.00;;;18.70
54746;BMP180;40640;48.130;11.356;2023-09-18T18:20:11;95286.00;;;18.60
54746;BMP180;40640;48.130;11.356;2023-09-18T18:24:17;95291.00;;;18.60
54746;BMP180;40640;48.130;11.356;2023-09-18T18:28:20;95293.00;;;18.50
54746;BMP180;40640;48.130;11.356;2023-09-18T18:32:24;95293.00;;;18.50
54746;BMP180;40640;48.130;11.356;2023-09-18T18:36:27;95294.00;;;18.40
54746;BMP180;40640;48.130;11.356;2023-09-18T18:40:31;95291.00;;;18.40
54746;BMP180;40640;48.130;11.356;2023-09-18T18:44:42;95307.00;;;18.40
54746;BMP180;40640;48.130;11.356;2023-09-18T18:48:46;95310.00;;;18.30
54746;BMP180;40640;48.130;11.356;2023-09-18T18:52:50;95305.00;;;18.20
54746;BMP180;40640;48.130;11.356;2023-09-18T18:56:53;95307.00;;;18.30
54746;BMP180;40640;48.130;11.356;2023-09-18T19:00:58;95304.00;;;18.20
54746;BMP180;40640;48.130;11.356;2023-09-18T19:05:04;95302.00;;;18.30
54746;BMP180;40640;48.130;11.356;2023-09-18T19:09:09;95291.00;;;18.20
54746;BMP180;40640;48.130;11.356;2023-09-18T19:13:14;95282.00;;;18.20
54746;BMP180;40640;48.130;11.356;2023-09-18T19:17:17;95269.00;;;18.20
54746;BMP180;40640;48.130;11.356;2023-09-18T19:21:21;95290.00;;;18.30
54746;BMP180;40640;48.130;11.356;2023-09-18T19:25:24;95311.00;;;18.20
54746;BMP180;40640;48.130;11.356;2023-09-18T19:29:27;95326.00;;;18.20
54746;BMP180;40640;48.130;11.356;2023-09-18T19:33:32;95323.00;;;18.00
54746;BMP180;40640;48.130;11.356;2023-09-18T19:37:42;95331.00;;;18.00
54746;BMP180;40640;48.130;11.356;2023-09-18T19:41:45;95323.00;;;18.10
54746;BMP180;40640;48.130;11.356;2023-09-18T19:45:48;95335.00;;;18.00
54746;BMP180;40640;48.130;11.356;2023-09-18T19:49:52;95326.00;;;18.00
54746;BMP180;40640;48.130;11.356;2023-09-18T19:53:57;95319.00;;;18.10
54746;BMP180;40640;48.130;11.356;2023-09-18T19:58:00;95320.00;;;18.00
54746;BMP180;40640;48.130;11.356;2023-09-18T20:02:03;95321.00;;;18.10
54746;BMP180;40640;48.130;11.356;2023-09-18T20:06:07;95316.00;;;18.10
54746;BMP180;40640;48.130;11.356;2023-09-18T20:10:13;95308.00;;;18.10
54746;BMP180;40640;48.130;11.356;2023-09-18T20:14:18;95322.00;;;18.10
54746;BMP180;40640;48.130;11.356;2023-09-18T20:18:32;95314.00;;;18.00
54746;BMP180;40640;48.130;11.356;2023-09-18T20:22:35;95301.00;;;18.00
54746;BMP180;40640;48.130;11.356;2023-09-18T20:26:40;95308.00;;;18.00
54746;BMP180;40640;48.130;11.356;2023-09-18T20:30:50;95305.00;;;18.00
54746;BMP180;40640;48.130;11.356;2023-09-18T20:34:54;95312.00;;;18.10
54746;BMP180;40640;48.130;11.356;2023-09-18T20:38:57;95297.00;;;18.00
54746;BMP180;40640;48.130;11.356;2023-09-18T20:43:01;95306.00;;;18.00
54746;BMP180;40640;48.130;11.356;2023-09-18T20:47:05;95304.00;;;18.00
54746;BMP180;40640;48.130;11.356;2023-09-18T20:51:08;95315.00;;;17.90
54746;BMP180;40640;48.130;11.356;2023-09-18T20:55:11;95321.00;;;17.90
54746;BMP180;40640;48.130;11.356;2023-09-18T20:59:16;95318.00;;;17.80
54746;BMP180;40640;48.130;11.356;2023-09-18T21:03:19;95322.00;;;17.80
54746;BMP180;40640;48.130;11.356;2023-09-18T21:07:22;95320.00;;;17.70
54746;BMP180;40640;48.130;11.356;2023-09-18T21:11:25;95323.00;;;17.80
54746;BMP180;40640;48.130;11.356;2023-09-18T21:15:33;95325.00;;;17.70
54746;BMP180;40640;48.130;11.356;2023-09-18T21:19:37;95323.00;;;17.80
54746;BMP180;40640;48.130;11.356;2023-09-18T21:23:41;95321.00;;;17.80
54746;BMP180;40640;48.130;11.356;2023-09-18T21:27:46;95324.00;;;17.80
54746;BMP180;40640;48.130;11.356;2023-09-18T21:31:52;95340.00;;;17.70
54746;BMP180;40640;48.130;11.356;2023-09-18T21:36:12;95347.00;;;17.70
54746;BMP180;40640;48.130;11.356;2023-09-18T21:40:15;95349.00;;;17.70
54746;BMP180;40640;48.130;11.356;2023-09-18T21:44:17;95354.00;;;17.70
54746;BMP180;40640;48.130;11.356;2023-09-18T21:48:22;95363.00;;;17.70
54746;BMP180;40640;48.130;11.356;2023-09-18T21:52:25;95355.00;;;17.70
54746;BMP180;40640;48.130;11.356;2023-09-18T21:56:28;95351.00;;;17.70
54746;BMP180;40640;48.130;11.356;2023-09-18T22:00:31;95354.00;;;17.70
54746;BMP180;40640;48.130;11.356;2023-09-18T22:04:37;95339.00;;;17.60
54746;BMP180;40640;48.130;11.356;2023-09-18T22:08:40;95349.00;;;17.60
54746;BMP180;40640;48.130;11.356;2023-09-18T22:12:44;95351.00;;;17.50
54746;BMP180;40640;48.130;11.356;2023-09-18T22:16:47;95345.00;;;17.40
54746;BMP180;40640;48.130;11.356;2023-09-18T22:20:51;95342.00;;;17.40
54746;BMP180;40640;48.130;11.356;2023-09-18T22:24:54;95347.00;;;17.40
54746;BMP180;40640;48.130;11.356;2023-09-18T22:28:57;95351.00;;;17.40
54746;BMP180;40640;48.130;11.356;2023-09-18T22:33:00;95357.00;;;17.40
54746;BMP180;40640;48.130;11.356;2023-09-18T22:37:06;95348.00;;;17.40
54746;BMP180;40640;48.130;11.356;2023-09-18T22:54:43;95353.00;;;17.00
54746;BMP180;40640;48.130;11.356;2023-09-18T22:58:46;95347.00;;;16.90
54746;BMP180;40640;48.130;11.356;2023-09-18T23:02:49;95355.00;;;16.90
54746;BMP180;40640;48.130;11.356;2023-09-18T23:06:53;95352.00;;;16.90
54746;BMP180;40640;48.130;11.356;2023-09-18T23:10:58;95351.00;;;16.90
54746;BMP180;40640;48.130;11.356;2023-09-18T23:15:02;95357.00;;;17.00
54746;BMP180;40640;48.130;11.356;2023-09-18T23:19:06;95361.00;;;17.00
54746;BMP180;40640;48.130;11.356;2023-09-18T23:23:10;95358.00;;;17.10